createdAt,value
2018-09-19T00:00:50.898Z,19.33
2018-09-19T00:03:20.118Z,19.08
2018-09-19T00:05:49.370Z,18.98
2018-09-19T00:08:18.643Z,18.80
2018-09-19T00:10:48.179Z,18.64
2018-09-19T00:13:17.421Z,18.54
2018-09-19T00:15:46.737Z,18.41
2018-09-19T00:18:16.053Z,18.48
2018-09-19T00:20:45.710Z,18.38
2018-09-19T00:23:15.039Z,18.54
2018-09-19T00:25:44.306Z,18.40
2018-09-19T00:28:13.709Z,18.28
2018-09-19T00:30:43.092Z,18.18
2018-09-19T00:33:12.326Z,18.10
2018-09-19T00:35:41.523Z,18.23
2018-09-19T00:38:10.705Z,18.19
2018-09-19T00:40:39.987Z,18.15
2018-09-19T00:43:09.215Z,18.16
2018-09-19T00:45:38.580Z,18.20
2018-09-19T00:48:07.850Z,18.20
2018-09-19T00:50:37.195Z,18.08
2018-09-19T00:53:06.699Z,17.94
2018-09-19T00:55:36.011Z,17.92
2018-09-19T00:58:05.241Z,17.95
2018-09-19T01:00:34.457Z,17.86
2018-09-19T01:03:03.713Z,17.76
2018-09-19T01:05:33.010Z,17.70
2018-09-19T01:08:02.310Z,17.61
2018-09-19T01:10:32.656Z,17.63
2018-09-19T01:13:02.072Z,17.59
2018-09-19T01:15:31.399Z,17.53
2018-09-19T01:18:00.747Z,17.53
2018-09-19T01:20:30.048Z,17.55
2018-09-19T01:22:59.302Z,17.54
2018-09-19T01:25:28.543Z,17.53
2018-09-19T01:27:58.697Z,17.52
2018-09-19T01:30:28.014Z,17.68
2018-09-19T01:32:57.273Z,17.68
2018-09-19T01:35:26.559Z,17.61
2018-09-19T01:37:55.835Z,17.54
2018-09-19T01:40:25.192Z,17.41
2018-09-19T01:42:54.485Z,17.37
2018-09-19T01:45:23.716Z,17.34
2018-09-19T01:47:53.048Z,17.30
2018-09-19T01:50:22.396Z,17.27
2018-09-19T01:52:51.682Z,17.32
2018-09-19T01:55:20.941Z,17.37
2018-09-19T01:57:50.291Z,17.27
2018-09-19T02:00:19.706Z,17.18
2018-09-19T02:02:48.974Z,17.04
2018-09-19T02:05:18.266Z,17.06
2018-09-19T02:07:47.580Z,16.94
2018-09-19T02:10:16.889Z,16.88
2018-09-19T02:12:46.171Z,16.76
2018-09-19T02:15:15.904Z,16.74
2018-09-19T02:17:45.207Z,16.80
2018-09-19T02:20:14.519Z,16.69
2018-09-19T02:22:43.850Z,16.66
2018-09-19T02:25:13.119Z,16.55
2018-09-19T02:27:42.405Z,16.48
2018-09-19T02:30:11.673Z,16.50
2018-09-19T02:32:40.992Z,16.51
2018-09-19T02:35:10.255Z,16.55
2018-09-19T02:37:39.526Z,16.55
2018-09-19T02:40:08.843Z,16.55
2018-09-19T02:42:38.119Z,16.53
2018-09-19T02:45:07.500Z,16.56
2018-09-19T02:47:36.761Z,16.63
2018-09-19T02:50:06.056Z,16.63
2018-09-19T02:52:35.343Z,16.56
2018-09-19T02:55:04.610Z,16.54
2018-09-19T02:57:33.887Z,16.53
2018-09-19T03:00:04.256Z,16.50
2018-09-19T03:02:33.542Z,16.37
2018-09-19T03:05:02.794Z,16.27
2018-09-19T03:07:32.058Z,16.16
2018-09-19T03:10:01.374Z,16.09
2018-09-19T03:12:30.646Z,16.15
2018-09-19T03:15:00.117Z,16.07
2018-09-19T03:17:29.465Z,16.03
2018-09-19T03:19:58.641Z,16.01
2018-09-19T03:22:27.993Z,16.13
2018-09-19T03:24:57.252Z,16.19
2018-09-19T03:27:26.505Z,16.09
2018-09-19T03:29:55.917Z,16.03
2018-09-19T03:32:25.176Z,15.94
2018-09-19T03:34:54.408Z,15.87
2018-09-19T03:37:23.690Z,15.85
2018-09-19T03:39:52.934Z,15.84
2018-09-19T03:42:22.134Z,15.83
2018-09-19T03:44:51.382Z,15.76
2018-09-19T03:47:20.642Z,15.62
2018-09-19T03:49:49.904Z,15.69
2018-09-19T03:52:19.102Z,15.78
2018-09-19T03:54:48.409Z,15.80
2018-09-19T03:57:17.650Z,15.67
2018-09-19T03:59:46.961Z,15.66
2018-09-19T04:02:16.182Z,15.77
2018-09-19T04:04:45.481Z,15.83
2018-09-19T04:07:14.707Z,16.00
2018-09-19T04:09:43.960Z,15.92
2018-09-19T04:12:13.264Z,15.72
2018-09-19T04:14:42.513Z,15.59
2018-09-19T04:17:11.722Z,15.45
2018-09-19T04:19:40.958Z,15.48
2018-09-19T04:22:10.165Z,15.48
2018-09-19T04:24:39.380Z,15.44
2018-09-19T04:27:08.592Z,15.42
2018-09-19T04:29:37.971Z,15.35
2018-09-19T04:32:07.344Z,15.34
2018-09-19T04:34:36.613Z,15.36
2018-09-19T04:37:06.027Z,15.38
2018-09-19T04:39:35.334Z,15.37
2018-09-19T04:42:04.682Z,15.39
2018-09-19T04:44:34.001Z,15.30
2018-09-19T04:47:03.297Z,15.34
2018-09-19T04:49:32.600Z,15.29
2018-09-19T04:52:01.921Z,15.26
2018-09-19T04:54:31.202Z,15.20
2018-09-19T04:57:00.474Z,15.12
2018-09-19T04:59:29.810Z,15.09
2018-09-19T05:01:59.116Z,15.13
2018-09-19T05:04:28.411Z,15.04
2018-09-19T05:06:58.034Z,14.95
2018-09-19T05:09:27.314Z,15.00
2018-09-19T05:11:56.782Z,15.01
2018-09-19T05:14:26.136Z,15.02
2018-09-19T05:16:55.487Z,14.90
2018-09-19T05:19:24.959Z,14.83
2018-09-19T05:21:54.278Z,14.86
2018-09-19T05:24:23.628Z,14.84
2018-09-19T05:26:53.026Z,14.91
2018-09-19T05:29:22.410Z,15.02
2018-09-19T05:31:51.732Z,14.99
2018-09-19T05:34:21.191Z,15.10
2018-09-19T05:36:50.661Z,15.19
2018-09-19T05:39:20.002Z,15.32
2018-09-19T05:41:49.338Z,15.32
2018-09-19T05:44:18.625Z,15.42
2018-09-19T05:46:49.710Z,15.56
2018-09-19T05:49:19.073Z,15.70
2018-09-19T05:51:49.943Z,15.80
2018-09-19T05:54:19.231Z,15.91
2018-09-19T05:56:48.553Z,16.08
2018-09-19T05:59:17.845Z,16.26
2018-09-19T06:01:47.131Z,16.48
2018-09-19T06:04:16.426Z,16.54
2018-09-19T06:06:45.755Z,16.54
2018-09-19T06:09:15.155Z,16.57
2018-09-19T06:11:44.532Z,16.74
2018-09-19T06:14:13.947Z,16.86
2018-09-19T06:16:43.267Z,17.06
2018-09-19T06:19:12.557Z,17.11
2018-09-19T06:21:41.843Z,17.17
2018-09-19T06:24:11.101Z,17.30
2018-09-19T06:26:40.374Z,17.52
2018-09-19T06:29:09.658Z,17.65
2018-09-19T06:31:38.930Z,17.79
2018-09-19T06:34:08.214Z,17.90
2018-09-19T06:36:37.667Z,18.04
2018-09-19T06:39:08.699Z,18.11
2018-09-19T06:41:37.998Z,18.32
2018-09-19T06:44:07.285Z,18.53
2018-09-19T06:46:36.551Z,18.68
2018-09-19T06:49:05.924Z,18.86
2018-09-19T06:51:35.156Z,19.00
2018-09-19T06:54:04.399Z,19.11
2018-09-19T06:56:33.635Z,19.27
2018-09-19T06:59:02.979Z,19.53
2018-09-19T07:01:32.227Z,19.68
2018-09-19T07:04:01.680Z,19.73
2018-09-19T07:06:30.986Z,19.82
2018-09-19T07:09:00.289Z,19.89
2018-09-19T07:11:29.562Z,20.17
2018-09-19T07:13:58.926Z,20.28
2018-09-19T07:16:28.244Z,20.39
2018-09-19T07:18:57.523Z,20.50
2018-09-19T07:21:26.758Z,20.51
2018-09-19T07:23:56.080Z,20.58
2018-09-19T07:26:25.266Z,20.67
2018-09-19T07:28:54.505Z,20.55
2018-09-19T07:31:23.791Z,20.78
2018-09-19T07:33:53.090Z,20.99
2018-09-19T07:36:22.396Z,21.13
2018-09-19T07:38:51.817Z,21.38
2018-09-19T07:41:21.119Z,21.28
2018-09-19T07:43:50.408Z,21.44
2018-09-19T07:46:19.694Z,21.50
2018-09-19T07:48:49.004Z,21.39
2018-09-19T07:51:18.278Z,21.67
2018-09-19T07:53:47.565Z,21.91
2018-09-19T07:56:16.782Z,21.76
2018-09-19T07:58:46.015Z,21.71
2018-09-19T08:01:15.304Z,22.05
2018-09-19T08:03:44.563Z,22.08
2018-09-19T08:06:13.852Z,21.79
2018-09-19T08:08:43.188Z,22.01
2018-09-19T08:11:12.527Z,21.99
2018-09-19T08:13:41.810Z,22.16
2018-09-19T08:16:11.166Z,22.46
2018-09-19T08:18:40.403Z,22.37
2018-09-19T08:21:09.731Z,22.63
2018-09-19T08:23:38.951Z,22.93
2018-09-19T08:26:08.180Z,23.14
2018-09-19T08:28:37.451Z,23.33
2018-09-19T08:31:06.886Z,23.54
2018-09-19T08:33:36.172Z,23.31
2018-09-19T08:36:05.466Z,23.54
2018-09-19T08:38:34.802Z,23.69
2018-09-19T08:41:04.186Z,23.50
2018-09-19T08:43:33.506Z,23.86
2018-09-19T08:46:02.865Z,23.80
2018-09-19T08:48:32.297Z,24.11
2018-09-19T08:51:04.522Z,24.02
2018-09-19T08:53:34.032Z,24.16
2018-09-19T08:56:03.519Z,24.50
2018-09-19T08:58:32.896Z,24.50
2018-09-19T09:01:02.258Z,24.10
2018-09-19T09:03:31.598Z,24.45
2018-09-19T09:06:00.908Z,24.66
2018-09-19T09:08:30.245Z,24.50
2018-09-19T09:10:59.607Z,24.93
2018-09-19T09:13:28.911Z,25.07
2018-09-19T09:15:58.239Z,25.28
2018-09-19T09:18:27.491Z,25.17
2018-09-19T09:20:56.762Z,25.10
2018-09-19T09:23:26.041Z,24.78
2018-09-19T09:25:55.432Z,25.08
2018-09-19T09:28:24.746Z,25.24
2018-09-19T09:30:54.053Z,25.46
2018-09-19T09:33:23.334Z,25.50
2018-09-19T09:35:52.678Z,25.49
2018-09-19T09:38:21.951Z,25.49
2018-09-19T09:40:51.272Z,25.44
2018-09-19T09:43:20.626Z,25.63
2018-09-19T09:45:49.902Z,25.76
2018-09-19T09:48:19.120Z,25.60
2018-09-19T09:50:48.408Z,25.98
2018-09-19T09:53:17.718Z,26.09
2018-09-19T09:55:47.047Z,26.10
2018-09-19T09:58:16.323Z,26.58
2018-09-19T10:00:45.608Z,26.34
2018-09-19T10:03:14.928Z,26.41
2018-09-19T10:05:45.174Z,26.09
2018-09-19T10:08:14.392Z,26.30
2018-09-19T10:10:43.594Z,26.53
2018-09-19T10:13:14.161Z,26.19
2018-09-19T10:15:43.476Z,26.01
2018-09-19T10:18:12.771Z,26.58
2018-09-19T10:20:42.006Z,26.57
2018-09-19T10:23:11.343Z,26.58
2018-09-19T10:25:40.651Z,26.80
2018-09-19T10:28:09.907Z,26.89
2018-09-19T10:30:39.169Z,26.70
2018-09-19T10:33:08.500Z,26.57
2018-09-19T10:35:37.816Z,26.48
2018-09-19T10:38:07.125Z,26.39
2018-09-19T10:40:36.324Z,26.52
2018-09-19T10:43:05.661Z,26.77
2018-09-19T10:45:34.909Z,26.49
2018-09-19T10:48:04.222Z,27.06
2018-09-19T10:50:33.567Z,27.10
2018-09-19T10:53:02.833Z,27.16
2018-09-19T10:55:32.076Z,27.54
2018-09-19T10:58:01.347Z,27.66
2018-09-19T11:00:30.598Z,27.67
2018-09-19T11:03:02.352Z,27.52
2018-09-19T11:05:31.720Z,27.72
2018-09-19T11:08:01.195Z,27.39
2018-09-19T11:10:30.538Z,27.56
2018-09-19T11:12:59.845Z,27.53
2018-09-19T11:15:29.278Z,27.95
2018-09-19T11:18:04.594Z,27.99
2018-09-19T11:20:34.287Z,27.87
2018-09-19T11:23:03.569Z,28.07
2018-09-19T11:25:32.845Z,27.92
2018-09-19T11:28:02.175Z,28.08
2018-09-19T11:30:31.467Z,28.46
2018-09-19T11:33:00.880Z,28.64
2018-09-19T11:35:30.211Z,28.42
2018-09-19T11:37:59.499Z,28.82
2018-09-19T11:40:28.885Z,28.61
2018-09-19T11:42:58.165Z,28.76
2018-09-19T11:45:27.474Z,28.42
2018-09-19T11:47:56.726Z,28.69
2018-09-19T11:50:26.066Z,28.71
2018-09-19T11:52:55.349Z,28.83
2018-09-19T11:55:24.667Z,29.03
2018-09-19T11:57:53.970Z,28.47
2018-09-19T12:00:23.179Z,28.49
2018-09-19T12:02:52.506Z,28.64
2018-09-19T12:05:21.841Z,27.98
2018-09-19T12:07:51.150Z,28.16
2018-09-19T12:10:20.490Z,28.72
2018-09-19T12:12:49.831Z,28.96
2018-09-19T12:15:19.112Z,28.78
2018-09-19T12:17:48.470Z,28.88
2018-09-19T12:20:17.802Z,28.71
2018-09-19T12:22:47.506Z,28.58
2018-09-19T12:25:16.806Z,28.77
2018-09-19T12:27:46.509Z,29.07
2018-09-19T12:30:19.625Z,28.36
2018-09-19T12:32:49.139Z,27.96
2018-09-19T12:35:18.430Z,27.83
2018-09-19T12:37:47.793Z,27.77
2018-09-19T12:40:17.078Z,27.60
2018-09-19T12:42:46.827Z,28.24
2018-09-19T12:45:17.049Z,28.76
2018-09-19T12:47:46.364Z,28.81
2018-09-19T12:50:15.731Z,29.09
2018-09-19T12:52:45.855Z,29.48
2018-09-19T12:55:15.261Z,29.36
2018-09-19T12:57:44.685Z,28.58
2018-09-19T13:00:14.062Z,28.43
2018-09-19T13:02:43.425Z,28.74
2018-09-19T13:05:12.850Z,28.55
2018-09-19T13:07:42.074Z,28.88
2018-09-19T13:10:12.307Z,28.91
2018-09-19T13:12:41.563Z,29.52
2018-09-19T13:15:11.074Z,29.41
2018-09-19T13:17:44.631Z,29.01
2018-09-19T13:20:15.021Z,28.66
2018-09-19T13:22:44.285Z,28.61
2018-09-19T13:25:13.592Z,29.09
2018-09-19T13:27:42.851Z,29.37
2018-09-19T13:30:12.156Z,29.56
2018-09-19T13:32:41.430Z,29.74
2018-09-19T13:35:10.726Z,29.79
2018-09-19T13:37:40.074Z,30.14
2018-09-19T13:40:09.521Z,30.14
2018-09-19T13:42:43.597Z,30.12
2018-09-19T13:45:12.942Z,30.08
2018-09-19T13:47:42.300Z,29.94
2018-09-19T13:50:38.646Z,29.95
2018-09-19T13:53:08.345Z,29.87
2018-09-19T13:55:37.765Z,29.69
2018-09-19T13:58:07.230Z,29.66
2018-09-19T14:00:36.522Z,29.67
2018-09-19T14:03:06.707Z,29.89
2018-09-19T14:05:36.105Z,29.72
2018-09-19T14:08:05.551Z,29.61
2018-09-19T14:10:34.926Z,29.73
2018-09-19T14:13:26.035Z,29.76
2018-09-19T14:15:58.331Z,29.76
2018-09-19T14:18:27.841Z,29.76
2018-09-19T14:20:57.516Z,29.92
2018-09-19T14:23:26.851Z,29.69
2018-09-19T14:25:56.170Z,29.84
2018-09-19T14:28:25.538Z,29.62
2018-09-19T14:30:54.883Z,29.48
2018-09-19T14:33:24.155Z,29.49
2018-09-19T14:35:53.615Z,29.26
2018-09-19T14:38:22.821Z,29.40
2018-09-19T14:40:52.155Z,29.51
2018-09-19T14:43:21.508Z,29.45
2018-09-19T14:45:50.870Z,29.40
2018-09-19T14:48:20.309Z,29.40
2018-09-19T14:50:49.583Z,29.38
2018-09-19T14:53:18.839Z,29.35
2018-09-19T14:55:48.094Z,29.37
2018-09-19T14:58:17.391Z,29.48
2018-09-19T15:00:46.667Z,29.52
2018-09-19T15:03:16.048Z,29.65
2018-09-19T15:05:46.216Z,29.73
2018-09-19T15:08:15.457Z,29.49
2018-09-19T15:13:21.825Z,29.65
2018-09-19T15:15:51.186Z,29.57
2018-09-19T15:18:20.493Z,29.39
2018-09-19T15:20:50.560Z,29.21
2018-09-19T15:23:19.861Z,29.21
2018-09-19T15:25:49.204Z,29.09
2018-09-19T15:28:18.605Z,29.03
2018-09-19T15:30:47.913Z,28.94
2018-09-19T15:33:17.278Z,28.99
2018-09-19T15:35:46.983Z,28.82
2018-09-19T15:38:18.773Z,28.77
2018-09-19T15:40:49.217Z,28.70
2018-09-19T15:43:18.568Z,28.62
2018-09-19T15:45:47.862Z,28.51
2018-09-19T15:48:17.259Z,28.63
2018-09-19T15:50:46.538Z,28.69
2018-09-19T15:53:15.882Z,28.58
2018-09-19T15:55:45.191Z,28.56
2018-09-19T15:58:16.343Z,28.38
2018-09-19T16:00:45.668Z,28.31
2018-09-19T16:03:15.111Z,28.27
2018-09-19T16:05:44.510Z,28.28
2018-09-19T16:08:13.913Z,28.24
2018-09-19T16:10:43.683Z,28.26
2018-09-19T16:13:14.036Z,28.17
2018-09-19T16:15:43.870Z,28.10
2018-09-19T16:18:14.538Z,28.06
2018-09-19T16:20:44.344Z,27.94
2018-09-19T16:23:13.646Z,27.78
2018-09-19T16:25:42.986Z,27.59
2018-09-19T16:28:12.362Z,27.43
2018-09-19T16:30:41.631Z,27.42
2018-09-19T16:33:14.154Z,27.36
2018-09-19T16:35:43.615Z,27.39
2018-09-19T16:38:13.035Z,27.34
2018-09-19T16:40:42.309Z,27.30
2018-09-19T16:43:11.581Z,27.21
2018-09-19T16:45:40.857Z,27.09
2018-09-19T16:48:10.084Z,27.03
2018-09-19T16:50:39.312Z,26.85
2018-09-19T16:53:08.604Z,26.83
2018-09-19T16:55:37.871Z,26.77
2018-09-19T16:58:07.221Z,26.65
2018-09-19T17:00:36.495Z,26.49
2018-09-19T17:03:06.001Z,26.39
2018-09-19T17:05:35.430Z,26.28
2018-09-19T17:08:04.787Z,26.12
2018-09-19T17:10:35.349Z,26.00
2018-09-19T17:13:05.192Z,25.83
2018-09-19T17:15:34.776Z,25.66
2018-09-19T17:18:04.123Z,25.49
2018-09-19T17:20:33.586Z,25.26
2018-09-19T17:23:03.530Z,25.07
2018-09-19T17:25:32.912Z,24.90
2018-09-19T17:28:02.193Z,24.77
2018-09-19T17:30:34.123Z,24.62
2018-09-19T17:33:03.468Z,24.50
2018-09-19T17:35:32.844Z,24.42
2018-09-19T17:38:02.074Z,24.30
2018-09-19T17:40:31.366Z,24.18
2018-09-19T17:43:00.604Z,24.10
2018-09-19T17:45:30.297Z,23.95
2018-09-19T17:47:59.587Z,23.76
2018-09-19T17:50:39.270Z,23.59
2018-09-19T17:53:08.584Z,23.39
2018-09-19T17:55:37.903Z,23.31
2018-09-19T17:58:07.295Z,23.25
2018-09-19T18:00:36.686Z,23.10
2018-09-19T18:03:06.112Z,22.99
2018-09-19T18:05:35.371Z,22.96
2018-09-19T18:08:04.755Z,22.92
2018-09-19T18:10:34.109Z,22.85
2018-09-19T18:13:03.579Z,22.82
2018-09-19T18:15:34.307Z,22.67
2018-09-19T18:18:03.584Z,22.63
2018-09-19T18:20:34.178Z,22.55
2018-09-19T18:23:05.197Z,22.48
2018-09-19T18:25:34.465Z,22.34
2018-09-19T18:28:03.829Z,22.33
2018-09-19T18:30:33.097Z,22.26
2018-09-19T18:33:03.306Z,22.20
2018-09-19T18:35:33.914Z,22.15
2018-09-19T18:38:03.216Z,22.15
2018-09-19T18:40:32.727Z,22.05
2018-09-19T18:43:04.193Z,21.95
2018-09-19T18:45:33.570Z,21.88
2018-09-19T18:48:04.001Z,21.82
2018-09-19T18:50:34.049Z,21.68
2018-09-19T18:53:03.501Z,21.66
2018-09-19T18:55:33.031Z,21.70
2018-09-19T18:58:03.694Z,21.58
2018-09-19T19:00:33.070Z,21.48
2018-09-19T19:03:02.387Z,21.34
2018-09-19T19:05:31.696Z,21.26
2018-09-19T19:08:01.826Z,21.25
2018-09-19T19:10:31.179Z,21.27
2018-09-19T19:13:00.566Z,21.24
2018-09-19T19:15:29.953Z,21.28
2018-09-19T19:17:59.368Z,21.25
2018-09-19T19:20:28.683Z,21.23
2018-09-19T19:22:57.988Z,21.20
2018-09-19T19:25:30.587Z,21.15
2018-09-19T19:28:00.060Z,21.14
2018-09-19T19:30:30.953Z,20.97
2018-09-19T19:33:00.538Z,20.90
2018-09-19T19:35:29.838Z,20.72
2018-09-19T19:37:59.278Z,20.66
2018-09-19T19:40:28.608Z,20.53
2018-09-19T19:42:57.907Z,20.44
2018-09-19T19:45:27.194Z,20.38
2018-09-19T19:47:56.462Z,20.24
2018-09-19T19:50:25.910Z,20.17
2018-09-19T19:52:55.227Z,20.16
2018-09-19T19:55:24.683Z,20.16
2018-09-19T19:57:54.051Z,20.22
2018-09-19T20:00:23.331Z,20.30
2018-09-19T20:02:52.653Z,20.21
2018-09-19T20:05:21.965Z,20.13
2018-09-19T20:07:51.455Z,20.19
2018-09-19T20:10:23.031Z,20.19
2018-09-19T20:12:52.310Z,20.04
2018-09-19T20:15:21.585Z,19.96
2018-09-19T20:17:51.037Z,19.85
2018-09-19T20:20:20.690Z,19.80
2018-09-19T20:22:50.093Z,19.74
2018-09-19T20:25:20.627Z,19.66
2018-09-19T20:27:50.095Z,19.55
2018-09-19T20:30:19.422Z,19.57
2018-09-19T20:32:48.886Z,19.47
2018-09-19T20:35:18.181Z,19.44
2018-09-19T20:37:47.937Z,19.59
2018-09-19T20:40:17.765Z,19.56
2018-09-19T20:42:47.080Z,19.51
2018-09-19T20:45:16.371Z,19.40
2018-09-19T20:47:45.864Z,19.25
2018-09-19T20:50:15.215Z,19.18
2018-09-19T20:52:44.612Z,19.14
2018-09-19T20:55:13.954Z,19.12
2018-09-19T20:57:43.469Z,19.15
2018-09-19T21:00:12.795Z,19.03
2018-09-19T21:02:42.127Z,18.88
2018-09-19T21:05:11.549Z,18.81
2018-09-19T21:07:40.858Z,18.80
2018-09-19T21:10:10.177Z,18.86
2018-09-19T21:12:39.581Z,18.83
2018-09-19T21:15:08.902Z,18.72
2018-09-19T21:17:38.222Z,18.63
2018-09-19T21:20:07.694Z,18.62
2018-09-19T21:22:37.208Z,18.60
2018-09-19T21:25:06.542Z,18.60
2018-09-19T21:27:35.872Z,18.55
2018-09-19T21:30:05.439Z,18.48
2018-09-19T21:32:34.921Z,18.43
2018-09-19T21:35:04.475Z,18.36
2018-09-19T21:37:33.762Z,18.26
2018-09-19T21:40:03.094Z,18.18
2018-09-19T21:42:32.357Z,18.15
2018-09-19T21:45:01.641Z,18.14
2018-09-19T21:47:30.885Z,18.07
2018-09-19T21:50:00.157Z,18.08
2018-09-19T21:52:29.386Z,18.07
2018-09-19T21:54:58.679Z,18.09
2018-09-19T21:57:27.894Z,18.09
2018-09-19T21:59:57.186Z,18.05
2018-09-19T22:02:26.598Z,18.03
2018-09-19T22:04:55.889Z,18.05
2018-09-19T22:07:25.157Z,17.98
2018-09-19T22:09:54.409Z,18.00
2018-09-19T22:12:23.663Z,18.10
2018-09-19T22:14:52.931Z,18.07
2018-09-19T22:17:22.153Z,18.05
2018-09-19T22:19:51.433Z,17.97
2018-09-19T22:22:20.742Z,17.91
2018-09-19T22:24:50.037Z,17.84
2018-09-19T22:27:19.348Z,17.76
2018-09-19T22:29:48.652Z,17.79
2018-09-19T22:32:17.979Z,17.73
2018-09-19T22:34:47.259Z,17.63
2018-09-19T22:37:16.628Z,17.59
2018-09-19T22:39:45.934Z,17.52
2018-09-19T22:42:15.678Z,17.51
2018-09-19T22:44:44.976Z,17.42
2018-09-19T22:47:14.246Z,17.40
2018-09-19T22:49:43.493Z,17.34
2018-09-19T22:52:12.697Z,17.33
2018-09-19T22:54:41.941Z,17.37
2018-09-19T22:57:11.168Z,17.41
2018-09-19T22:59:40.413Z,17.43
2018-09-19T23:02:09.667Z,17.39
2018-09-19T23:04:38.930Z,17.30
2018-09-19T23:07:08.187Z,17.27
2018-09-19T23:09:37.485Z,17.34
2018-09-19T23:12:06.788Z,17.19
2018-09-19T23:14:36.029Z,17.11
2018-09-19T23:17:05.291Z,17.14
2018-09-19T23:19:34.593Z,17.17
2018-09-19T23:22:03.885Z,17.13
2018-09-19T23:24:33.154Z,17.18
2018-09-19T23:27:02.454Z,17.12
2018-09-19T23:29:31.684Z,17.12
2018-09-19T23:32:00.977Z,17.13
2018-09-19T23:34:30.182Z,17.11
2018-09-19T23:36:59.464Z,17.10
2018-09-19T23:39:28.743Z,17.12
2018-09-19T23:41:57.990Z,17.14
2018-09-19T23:44:27.449Z,17.19
2018-09-19T23:46:56.790Z,17.16
2018-09-19T23:49:26.047Z,17.11
2018-09-19T23:51:55.311Z,17.06
2018-09-19T23:54:24.542Z,17.01
2018-09-19T23:56:53.919Z,17.01
2018-09-19T23:59:23.172Z,17.10
